sensor_id;sensor_type;location;lat;lon;timestamp;P1;durP1;ratioP1;P2;durP2;ratioP2
39044;SDS011;52192;52.002;5.956;2022-10-15T00:00:38;5.60;;;3.88;;
39044;SDS011;52192;52.002;5.956;2022-10-15T00:03:04;4.82;;;3.40;;
39044;SDS011;52192;52.002;5.956;2022-10-15T00:05:30;4.85;;;3.47;;
39044;SDS011;52192;52.002;5.956;2022-10-15T00:07:56;6.53;;;3.70;;
39044;SDS011;52192;52.002;5.956;2022-10-15T00:10:22;9.75;;;4.32;;
39044;SDS011;52192;52.002;5.956;2022-10-15T00:12:48;6.88;;;4.13;;
39044;SDS011;52192;52.002;5.956;2022-10-15T00:15:14;6.60;;;4.22;;
39044;SDS011;52192;52.002;5.956;2022-10-15T00:17:40;8.32;;;4.15;;
39044;SDS011;52192;52.002;5.956;2022-10-15T00:20:07;8.63;;;5.05;;
39044;SDS011;52192;52.002;5.956;2022-10-15T00:22:34;8.43;;;6.40;;
39044;SDS011;52192;52.002;5.956;2022-10-15T00:25:00;6.57;;;4.93;;
39044;SDS011;52192;52.002;5.956;2022-10-15T00:27:25;6.75;;;4.70;;
39044;SDS011;52192;52.002;5.956;2022-10-15T00:29:51;7.85;;;5.13;;
39044;SDS011;52192;52.002;5.956;2022-10-15T00:32:17;5.75;;;4.95;;
39044;SDS011;52192;52.002;5.956;2022-10-15T00:34:42;9.60;;;5.10;;
39044;SDS011;52192;52.002;5.956;2022-10-15T00:37:08;6.82;;;4.28;;
39044;SDS011;52192;52.002;5.956;2022-10-15T00:39:34;7.15;;;4.68;;
39044;SDS011;52192;52.002;5.956;2022-10-15T00:42:01;5.63;;;4.13;;
39044;SDS011;52192;52.002;5.956;2022-10-15T00:47:08;5.93;;;3.83;;
39044;SDS011;52192;52.002;5.956;2022-10-15T00:50:24;5.65;;;3.92;;
39044;SDS011;52192;52.002;5.956;2022-10-15T00:55:32;3.60;;;2.88;;
39044;SDS011;52192;52.002;5.956;2022-10-15T00:58:07;5.88;;;3.92;;
39044;SDS011;52192;52.002;5.956;2022-10-15T01:00:42;4.82;;;3.67;;
39044;SDS011;52192;52.002;5.956;2022-10-15T01:03:08;7.65;;;4.07;;
39044;SDS011;52192;52.002;5.956;2022-10-15T01:05:34;5.80;;;3.90;;
39044;SDS011;52192;52.002;5.956;2022-10-15T01:08:01;5.97;;;3.90;;
39044;SDS011;52192;52.002;5.956;2022-10-15T01:10:28;3.33;;;2.78;;
39044;SDS011;52192;52.002;5.956;2022-10-15T01:13:05;4.25;;;3.30;;
39044;SDS011;52192;52.002;5.956;2022-10-15T01:15:44;4.38;;;3.75;;
39044;SDS011;52192;52.002;5.956;2022-10-15T01:18:49;5.00;;;3.65;;
39044;SDS011;52192;52.002;5.956;2022-10-15T01:40:44;6.40;;;3.83;;
39044;SDS011;52192;52.002;5.956;2022-10-15T01:43:33;6.85;;;4.32;;
39044;SDS011;52192;52.002;5.956;2022-10-15T01:46:05;4.15;;;2.90;;
39044;SDS011;52192;52.002;5.956;2022-10-15T01:48:34;8.23;;;4.18;;
39044;SDS011;52192;52.002;5.956;2022-10-15T01:51:02;6.05;;;3.72;;
39044;SDS011;52192;52.002;5.956;2022-10-15T01:53:30;4.47;;;2.80;;
39044;SDS011;52192;52.002;5.956;2022-10-15T01:56:19;5.07;;;3.78;;
39044;SDS011;52192;52.002;5.956;2022-10-15T01:58:45;4.03;;;3.53;;
39044;SDS011;52192;52.002;5.956;2022-10-15T02:01:16;2.53;;;2.33;;
39044;SDS011;52192;52.002;5.956;2022-10-15T02:03:45;2.83;;;2.60;;
39044;SDS011;52192;52.002;5.956;2022-10-15T02:06:15;4.88;;;2.97;;
39044;SDS011;52192;52.002;5.956;2022-10-15T02:09:14;4.47;;;2.95;;
39044;SDS011;52192;52.002;5.956;2022-10-15T02:14:28;5.00;;;2.72;;
39044;SDS011;52192;52.002;5.956;2022-10-15T02:17:10;4.57;;;2.70;;
39044;SDS011;52192;52.002;5.956;2022-10-15T02:19:42;4.20;;;2.35;;
39044;SDS011;52192;52.002;5.956;2022-10-15T02:22:25;2.90;;;2.60;;
39044;SDS011;52192;52.002;5.956;2022-10-15T02:27:30;3.83;;;2.78;;
39044;SDS011;52192;52.002;5.956;2022-10-15T02:29:58;3.78;;;3.28;;
39044;SDS011;52192;52.002;5.956;2022-10-15T02:32:27;4.78;;;3.45;;
39044;SDS011;52192;52.002;5.956;2022-10-15T02:34:55;4.28;;;3.15;;
39044;SDS011;52192;52.002;5.956;2022-10-15T02:37:23;3.53;;;3.00;;
39044;SDS011;52192;52.002;5.956;2022-10-15T02:39:51;4.90;;;2.75;;
39044;SDS011;52192;52.002;5.956;2022-10-15T02:42:17;4.80;;;3.25;;
39044;SDS011;52192;52.002;5.956;2022-10-15T02:44:43;4.25;;;2.72;;
39044;SDS011;52192;52.002;5.956;2022-10-15T02:47:09;4.25;;;2.92;;
39044;SDS011;52192;52.002;5.956;2022-10-15T02:49:35;3.65;;;3.25;;
39044;SDS011;52192;52.002;5.956;2022-10-15T02:52:02;5.15;;;2.95;;
39044;SDS011;52192;52.002;5.956;2022-10-15T02:54:28;3.70;;;3.15;;
39044;SDS011;52192;52.002;5.956;2022-10-15T02:56:53;3.90;;;2.92;;
39044;SDS011;52192;52.002;5.956;2022-10-15T02:59:19;3.83;;;3.38;;
39044;SDS011;52192;52.002;5.956;2022-10-15T03:01:45;3.38;;;2.67;;
39044;SDS011;52192;52.002;5.956;2022-10-15T03:04:11;3.30;;;2.50;;
39044;SDS011;52192;52.002;5.956;2022-10-15T03:06:37;3.17;;;2.88;;
39044;SDS011;52192;52.002;5.956;2022-10-15T03:09:03;4.32;;;2.60;;
39044;SDS011;52192;52.002;5.956;2022-10-15T03:11:29;3.35;;;2.85;;
39044;SDS011;52192;52.002;5.956;2022-10-15T03:13:54;4.43;;;2.38;;
39044;SDS011;52192;52.002;5.956;2022-10-15T03:16:20;3.92;;;2.75;;
39044;SDS011;52192;52.002;5.956;2022-10-15T03:18:46;3.50;;;2.47;;
39044;SDS011;52192;52.002;5.956;2022-10-15T03:21:12;4.22;;;2.35;;
39044;SDS011;52192;52.002;5.956;2022-10-15T03:23:37;2.92;;;2.67;;
39044;SDS011;52192;52.002;5.956;2022-10-15T03:26:03;3.58;;;3.22;;
39044;SDS011;52192;52.002;5.956;2022-10-15T03:28:29;2.45;;;2.05;;
39044;SDS011;52192;52.002;5.956;2022-10-15T03:30:55;2.70;;;2.50;;
39044;SDS011;52192;52.002;5.956;2022-10-15T03:33:20;5.13;;;3.28;;
39044;SDS011;52192;52.002;5.956;2022-10-15T03:35:46;3.58;;;3.20;;
39044;SDS011;52192;52.002;5.956;2022-10-15T03:38:12;4.15;;;3.25;;
39044;SDS011;52192;52.002;5.956;2022-10-15T03:40:38;5.72;;;3.88;;
39044;SDS011;52192;52.002;5.956;2022-10-15T03:43:03;3.70;;;2.90;;
39044;SDS011;52192;52.002;5.956;2022-10-15T03:45:29;2.47;;;2.20;;
39044;SDS011;52192;52.002;5.956;2022-10-15T03:47:56;4.32;;;3.03;;
39044;SDS011;52192;52.002;5.956;2022-10-15T03:50:21;3.97;;;3.22;;
39044;SDS011;52192;52.002;5.956;2022-10-15T03:52:47;3.25;;;2.60;;
39044;SDS011;52192;52.002;5.956;2022-10-15T03:55:12;5.75;;;3.78;;
39044;SDS011;52192;52.002;5.956;2022-10-15T03:57:38;8.60;;;3.67;;
39044;SDS011;52192;52.002;5.956;2022-10-15T04:00:05;12.07;;;3.15;;
39044;SDS011;52192;52.002;5.956;2022-10-15T04:02:31;4.50;;;3.20;;
39044;SDS011;52192;52.002;5.956;2022-10-15T04:04:57;5.75;;;3.42;;
39044;SDS011;52192;52.002;5.956;2022-10-15T04:07:23;6.28;;;3.38;;
39044;SDS011;52192;52.002;5.956;2022-10-15T04:09:49;6.25;;;3.80;;
39044;SDS011;52192;52.002;5.956;2022-10-15T04:12:15;4.40;;;3.63;;
39044;SDS011;52192;52.002;5.956;2022-10-15T04:14:41;4.88;;;3.92;;
39044;SDS011;52192;52.002;5.956;2022-10-15T04:17:07;5.93;;;3.63;;
39044;SDS011;52192;52.002;5.956;2022-10-15T04:19:32;6.40;;;4.13;;
39044;SDS011;52192;52.002;5.956;2022-10-15T04:21:58;6.40;;;3.92;;
39044;SDS011;52192;52.002;5.956;2022-10-15T04:24:24;5.28;;;4.20;;
39044;SDS011;52192;52.002;5.956;2022-10-15T04:26:50;5.07;;;3.83;;
39044;SDS011;52192;52.002;5.956;2022-10-15T04:29:15;4.07;;;2.92;;
39044;SDS011;52192;52.002;5.956;2022-10-15T04:31:42;4.45;;;3.70;;
39044;SDS011;52192;52.002;5.956;2022-10-15T04:34:07;6.43;;;3.38;;
39044;SDS011;52192;52.002;5.956;2022-10-15T04:36:33;6.03;;;3.35;;
39044;SDS011;52192;52.002;5.956;2022-10-15T04:38:59;6.57;;;4.63;;
39044;SDS011;52192;52.002;5.956;2022-10-15T04:41:25;5.85;;;3.78;;
39044;SDS011;52192;52.002;5.956;2022-10-15T04:43:51;7.95;;;4.07;;
39044;SDS011;52192;52.002;5.956;2022-10-15T04:46:17;5.22;;;3.53;;
39044;SDS011;52192;52.002;5.956;2022-10-15T04:48:44;4.90;;;3.80;;
39044;SDS011;52192;52.002;5.956;2022-10-15T04:51:13;6.35;;;3.45;;
39044;SDS011;52192;52.002;5.956;2022-10-15T04:53:41;5.43;;;4.05;;
39044;SDS011;52192;52.002;5.956;2022-10-15T04:56:12;7.28;;;4.30;;
39044;SDS011;52192;52.002;5.956;2022-10-15T04:58:42;4.25;;;3.35;;
39044;SDS011;52192;52.002;5.956;2022-10-15T05:01:10;6.28;;;4.25;;
39044;SDS011;52192;52.002;5.956;2022-10-15T05:03:38;6.35;;;4.05;;
39044;SDS011;52192;52.002;5.956;2022-10-15T05:06:09;3.70;;;3.20;;
39044;SDS011;52192;52.002;5.956;2022-10-15T05:08:36;6.50;;;4.03;;
39044;SDS011;52192;52.002;5.956;2022-10-15T05:11:06;4.00;;;3.20;;
39044;SDS011;52192;52.002;5.956;2022-10-15T05:13:33;6.10;;;3.65;;
39044;SDS011;52192;52.002;5.956;2022-10-15T05:18:37;5.82;;;3.95;;
39044;SDS011;52192;52.002;5.956;2022-10-15T05:21:03;6.15;;;4.53;;
39044;SDS011;52192;52.002;5.956;2022-10-15T05:23:29;6.55;;;4.18;;
39044;SDS011;52192;52.002;5.956;2022-10-15T05:25:58;6.20;;;3.47;;
39044;SDS011;52192;52.002;5.956;2022-10-15T05:28:24;5.10;;;3.85;;
39044;SDS011;52192;52.002;5.956;2022-10-15T05:30:50;6.55;;;4.05;;
39044;SDS011;52192;52.002;5.956;2022-10-15T05:33:15;6.72;;;3.72;;
39044;SDS011;52192;52.002;5.956;2022-10-15T05:35:41;6.25;;;4.22;;
39044;SDS011;52192;52.002;5.956;2022-10-15T05:38:07;4.25;;;3.33;;
39044;SDS011;52192;52.002;5.956;2022-10-15T05:40:32;6.85;;;3.90;;
39044;SDS011;52192;52.002;5.956;2022-10-15T05:42:58;6.97;;;4.30;;
39044;SDS011;52192;52.002;5.956;2022-10-15T05:45:23;5.75;;;3.85;;
39044;SDS011;52192;52.002;5.956;2022-10-15T05:47:52;4.95;;;3.60;;
39044;SDS011;52192;52.002;5.956;2022-10-15T05:50:19;5.70;;;4.07;;
39044;SDS011;52192;52.002;5.956;2022-10-15T05:52:45;6.65;;;4.55;;
39044;SDS011;52192;52.002;5.956;2022-10-15T05:55:10;6.68;;;4.30;;
39044;SDS011;52192;52.002;5.956;2022-10-15T05:57:36;6.47;;;4.30;;
39044;SDS011;52192;52.002;5.956;2022-10-15T06:00:05;6.20;;;3.80;;
39044;SDS011;52192;52.002;5.956;2022-10-15T06:02:31;4.75;;;3.55;;
39044;SDS011;52192;52.002;5.956;2022-10-15T06:04:57;6.00;;;4.13;;
39044;SDS011;52192;52.002;5.956;2022-10-15T06:07:22;8.82;;;4.63;;
39044;SDS011;52192;52.002;5.956;2022-10-15T06:09:48;5.07;;;3.85;;
39044;SDS011;52192;52.002;5.956;2022-10-15T06:12:14;3.83;;;3.47;;
39044;SDS011;52192;52.002;5.956;2022-10-15T06:14:39;5.57;;;4.03;;
39044;SDS011;52192;52.002;5.956;2022-10-15T06:17:05;6.97;;;4.50;;
39044;SDS011;52192;52.002;5.956;2022-10-15T06:19:31;7.03;;;4.70;;
39044;SDS011;52192;52.002;5.956;2022-10-15T06:21:56;5.50;;;4.68;;
39044;SDS011;52192;52.002;5.956;2022-10-15T06:24:22;14.15;;;6.00;;
39044;SDS011;52192;52.002;5.956;2022-10-15T06:26:48;5.85;;;4.45;;
39044;SDS011;52192;52.002;5.956;2022-10-15T06:29:13;8.68;;;5.20;;
39044;SDS011;52192;52.002;5.956;2022-10-15T06:31:39;7.65;;;5.60;;
39044;SDS011;52192;52.002;5.956;2022-10-15T06:34:05;6.07;;;5.32;;
39044;SDS011;52192;52.002;5.956;2022-10-15T06:36:30;7.13;;;5.13;;
39044;SDS011;52192;52.002;5.956;2022-10-15T06:38:56;8.77;;;5.45;;
39044;SDS011;52192;52.002;5.956;2022-10-15T06:41:21;6.00;;;4.63;;
39044;SDS011;52192;52.002;5.956;2022-10-15T06:43:48;7.75;;;6.28;;
39044;SDS011;52192;52.002;5.956;2022-10-15T06:46:14;8.25;;;6.20;;
39044;SDS011;52192;52.002;5.956;2022-10-15T06:48:40;6.13;;;4.97;;
39044;SDS011;52192;52.002;5.956;2022-10-15T06:51:05;11.02;;;6.13;;
39044;SDS011;52192;52.002;5.956;2022-10-15T06:53:31;13.13;;;5.97;;
39044;SDS011;52192;52.002;5.956;2022-10-15T06:55:57;9.05;;;5.90;;
39044;SDS011;52192;52.002;5.956;2022-10-15T06:58:24;11.73;;;6.32;;
39044;SDS011;52192;52.002;5.956;2022-10-15T07:00:51;10.25;;;6.60;;
39044;SDS011;52192;52.002;5.956;2022-10-15T07:03:16;13.40;;;6.15;;
39044;SDS011;52192;52.002;5.956;2022-10-15T07:05:42;11.88;;;6.35;;
39044;SDS011;52192;52.002;5.956;2022-10-15T07:08:08;10.23;;;6.80;;
39044;SDS011;52192;52.002;5.956;2022-10-15T07:10:34;11.07;;;6.07;;
39044;SDS011;52192;52.002;5.956;2022-10-15T07:12:59;6.03;;;4.55;;
39044;SDS011;52192;52.002;5.956;2022-10-15T07:15:26;8.02;;;4.45;;
39044;SDS011;52192;52.002;5.956;2022-10-15T07:17:53;7.53;;;3.85;;
39044;SDS011;52192;52.002;5.956;2022-10-15T07:20:25;7.40;;;6.18;;
39044;SDS011;52192;52.002;5.956;2022-10-15T07:22:55;10.02;;;5.70;;
39044;SDS011;52192;52.002;5.956;2022-10-15T07:25:22;10.07;;;6.07;;
39044;SDS011;52192;52.002;5.956;2022-10-15T07:27:48;7.47;;;4.75;;
39044;SDS011;52192;52.002;5.956;2022-10-15T07:30:14;10.70;;;6.63;;
39044;SDS011;52192;52.002;5.956;2022-10-15T07:32:40;9.35;;;6.43;;
39044;SDS011;52192;52.002;5.956;2022-10-15T07:35:06;9.90;;;6.53;;
39044;SDS011;52192;52.002;5.956;2022-10-15T07:37:32;11.02;;;6.30;;
39044;SDS011;52192;52.002;5.956;2022-10-15T07:39:57;6.88;;;5.35;;
39044;SDS011;52192;52.002;5.956;2022-10-15T07:42:23;8.13;;;5.93;;
39044;SDS011;52192;52.002;5.956;2022-10-15T07:44:49;5.95;;;4.95;;
39044;SDS011;52192;52.002;5.956;2022-10-15T07:47:15;8.93;;;5.82;;
39044;SDS011;52192;52.002;5.956;2022-10-15T07:49:41;7.57;;;5.57;;
39044;SDS011;52192;52.002;5.956;2022-10-15T07:52:06;7.90;;;5.03;;
39044;SDS011;52192;52.002;5.956;2022-10-15T07:54:32;9.05;;;5.70;;
39044;SDS011;52192;52.002;5.956;2022-10-15T07:56:59;8.70;;;5.45;;
39044;SDS011;52192;52.002;5.956;2022-10-15T07:59:24;5.93;;;5.32;;
39044;SDS011;52192;52.002;5.956;2022-10-15T08:01:50;11.60;;;7.88;;
39044;SDS011;52192;52.002;5.956;2022-10-15T08:04:16;8.13;;;6.20;;
39044;SDS011;52192;52.002;5.956;2022-10-15T08:06:42;8.07;;;6.53;;
39044;SDS011;52192;52.002;5.956;2022-10-15T08:09:08;9.63;;;5.85;;
39044;SDS011;52192;52.002;5.956;2022-10-15T08:11:33;10.95;;;7.57;;
39044;SDS011;52192;52.002;5.956;2022-10-15T08:13:59;11.05;;;7.57;;
39044;SDS011;52192;52.002;5.956;2022-10-15T08:16:24;11.25;;;6.80;;
39044;SDS011;52192;52.002;5.956;2022-10-15T08:18:50;9.43;;;7.40;;
39044;SDS011;52192;52.002;5.956;2022-10-15T08:21:16;9.00;;;6.72;;
39044;SDS011;52192;52.002;5.956;2022-10-15T08:23:41;7.53;;;5.03;;
39044;SDS011;52192;52.002;5.956;2022-10-15T08:26:07;8.65;;;5.63;;
39044;SDS011;52192;52.002;5.956;2022-10-15T08:28:33;8.13;;;5.00;;
39044;SDS011;52192;52.002;5.956;2022-10-15T08:31:00;6.60;;;4.70;;
39044;SDS011;52192;52.002;5.956;2022-10-15T08:33:26;8.52;;;5.88;;
39044;SDS011;52192;52.002;5.956;2022-10-15T08:35:52;8.93;;;5.75;;
39044;SDS011;52192;52.002;5.956;2022-10-15T08:38:18;7.47;;;5.68;;
39044;SDS011;52192;52.002;5.956;2022-10-15T08:40:51;7.45;;;5.18;;
39044;SDS011;52192;52.002;5.956;2022-10-15T08:43:27;8.85;;;5.55;;
39044;SDS011;52192;52.002;5.956;2022-10-15T08:46:00;7.30;;;4.35;;
39044;SDS011;52192;52.002;5.956;2022-10-15T08:48:32;8.02;;;5.22;;
39044;SDS011;52192;52.002;5.956;2022-10-15T08:51:05;8.43;;;5.63;;
39044;SDS011;52192;52.002;5.956;2022-10-15T08:53:39;6.85;;;5.47;;
39044;SDS011;52192;52.002;5.956;2022-10-15T08:56:16;7.65;;;5.53;;
39044;SDS011;52192;52.002;5.956;2022-10-15T09:01:29;6.57;;;4.55;;
39044;SDS011;52192;52.002;5.956;2022-10-15T09:06:31;7.20;;;5.47;;
39044;SDS011;52192;52.002;5.956;2022-10-15T09:14:19;11.43;;;5.03;;
39044;SDS011;52192;52.002;5.956;2022-10-15T09:16:49;7.55;;;5.05;;
39044;SDS011;52192;52.002;5.956;2022-10-15T09:19:19;5.13;;;3.90;;
39044;SDS011;52192;52.002;5.956;2022-10-15T09:21:47;6.60;;;3.78;;
39044;SDS011;52192;52.002;5.956;2022-10-15T09:24:16;5.80;;;3.65;;
39044;SDS011;52192;52.002;5.956;2022-10-15T09:34:51;6.65;;;4.70;;
39044;SDS011;52192;52.002;5.956;2022-10-15T09:37:28;7.65;;;5.20;;
39044;SDS011;52192;52.002;5.956;2022-10-15T09:40:02;7.30;;;4.65;;
39044;SDS011;52192;52.002;5.956;2022-10-15T09:42:46;5.30;;;3.65;;
39044;SDS011;52192;52.002;5.956;2022-10-15T09:45:22;5.43;;;3.83;;
39044;SDS011;52192;52.002;5.956;2022-10-15T09:47:51;5.78;;;4.32;;
39044;SDS011;52192;52.002;5.956;2022-10-15T09:50:20;5.47;;;3.83;;
39044;SDS011;52192;52.002;5.956;2022-10-15T09:57:55;4.80;;;3.60;;
39044;SDS011;52192;52.002;5.956;2022-10-15T10:00:29;10.23;;;3.38;;
39044;SDS011;52192;52.002;5.956;2022-10-15T10:03:14;5.50;;;3.58;;
39044;SDS011;52192;52.002;5.956;2022-10-15T10:05:40;6.57;;;3.78;;
39044;SDS011;52192;52.002;5.956;2022-10-15T10:08:20;4.53;;;3.47;;
39044;SDS011;52192;52.002;5.956;2022-10-15T10:10:58;6.72;;;3.92;;
39044;SDS011;52192;52.002;5.956;2022-10-15T10:14:01;8.07;;;3.97;;
39044;SDS011;52192;52.002;5.956;2022-10-15T10:16:23;6.18;;;4.70;;
39044;SDS011;52192;52.002;5.956;2022-10-15T10:21:38;4.85;;;2.83;;
39044;SDS011;52192;52.002;5.956;2022-10-15T10:24:17;4.32;;;3.67;;
39044;SDS011;52192;52.002;5.956;2022-10-15T10:26:43;3.28;;;2.13;;
39044;SDS011;52192;52.002;5.956;2022-10-15T10:29:10;4.20;;;2.95;;
39044;SDS011;52192;52.002;5.956;2022-10-15T10:31:43;4.45;;;3.00;;
39044;SDS011;52192;52.002;5.956;2022-10-15T10:34:11;5.22;;;3.05;;
39044;SDS011;52192;52.002;5.956;2022-10-15T10:36:41;4.00;;;3.00;;
39044;SDS011;52192;52.002;5.956;2022-10-15T10:44:27;3.95;;;2.63;;
39044;SDS011;52192;52.002;5.956;2022-10-15T10:47:28;6.47;;;3.42;;
39044;SDS011;52192;52.002;5.956;2022-10-15T10:49:48;3.38;;;2.42;;
39044;SDS011;52192;52.002;5.956;2022-10-15T10:52:26;3.65;;;2.28;;
39044;SDS011;52192;52.002;5.956;2022-10-15T10:57:25;3.90;;;2.72;;
39044;SDS011;52192;52.002;5.956;2022-10-15T11:00:03;3.08;;;2.67;;
39044;SDS011;52192;52.002;5.956;2022-10-15T11:02:30;3.65;;;2.33;;
39044;SDS011;52192;52.002;5.956;2022-10-15T11:04:57;2.28;;;2.08;;
39044;SDS011;52192;52.002;5.956;2022-10-15T11:12:53;4.63;;;2.78;;
39044;SDS011;52192;52.002;5.956;2022-10-15T11:15:44;3.03;;;2.60;;
39044;SDS011;52192;52.002;5.956;2022-10-15T11:18:33;5.03;;;3.58;;
39044;SDS011;52192;52.002;5.956;2022-10-15T11:29:36;3.55;;;2.50;;
39044;SDS011;52192;52.002;5.956;2022-10-15T11:37:58;2.30;;;1.98;;
39044;SDS011;52192;52.002;5.956;2022-10-15T11:43:42;2.67;;;2.35;;
39044;SDS011;52192;52.002;5.956;2022-10-15T11:46:50;3.30;;;2.38;;
39044;SDS011;52192;52.002;5.956;2022-10-15T11:56:17;2.03;;;1.75;;
39044;SDS011;52192;52.002;5.956;2022-10-15T11:58:31;8.82;;;2.15;;
39044;SDS011;52192;52.002;5.956;2022-10-15T12:01:03;1.80;;;1.50;;
39044;SDS011;52192;52.002;5.956;2022-10-15T12:03:32;2.88;;;1.60;;
39044;SDS011;52192;52.002;5.956;2022-10-15T12:06:06;2.30;;;1.77;;
39044;SDS011;52192;52.002;5.956;2022-10-15T12:08:36;1.47;;;1.37;;
39044;SDS011;52192;52.002;5.956;2022-10-15T12:14:01;2.20;;;1.60;;
39044;SDS011;52192;52.002;5.956;2022-10-15T12:16:44;1.55;;;1.30;;
39044;SDS011;52192;52.002;5.956;2022-10-15T12:19:23;1.85;;;1.52;;
39044;SDS011;52192;52.002;5.956;2022-10-15T12:22:01;4.25;;;1.77;;
39044;SDS011;52192;52.002;5.956;2022-10-15T12:32:41;2.30;;;2.05;;
39044;SDS011;52192;52.002;5.956;2022-10-15T12:38:11;4.20;;;1.50;;
39044;SDS011;52192;52.002;5.956;2022-10-15T12:41:07;1.98;;;1.50;;
39044;SDS011;52192;52.002;5.956;2022-10-15T12:43:39;1.23;;;1.10;;
39044;SDS011;52192;52.002;5.956;2022-10-15T12:46:08;1.45;;;1.30;;
39044;SDS011;52192;52.002;5.956;2022-10-15T12:48:36;2.63;;;1.58;;
39044;SDS011;52192;52.002;5.956;2022-10-15T12:53:51;2.22;;;1.42;;
39044;SDS011;52192;52.002;5.956;2022-10-15T12:56:35;1.90;;;1.17;;
39044;SDS011;52192;52.002;5.956;2022-10-15T12:59:04;3.08;;;1.33;;
39044;SDS011;52192;52.002;5.956;2022-10-15T13:05:06;1.55;;;1.42;;
39044;SDS011;52192;52.002;5.956;2022-10-15T13:07:49;0.80;;;0.80;;
39044;SDS011;52192;52.002;5.956;2022-10-15T13:10:20;1.38;;;1.10;;
39044;SDS011;52192;52.002;5.956;2022-10-15T13:13:06;3.08;;;1.80;;
39044;SDS011;52192;52.002;5.956;2022-10-15T13:15:38;1.45;;;1.35;;
39044;SDS011;52192;52.002;5.956;2022-10-15T13:18:07;1.95;;;1.13;;
39044;SDS011;52192;52.002;5.956;2022-10-15T13:20:37;1.10;;;1.00;;
39044;SDS011;52192;52.002;5.956;2022-10-15T13:23:16;1.90;;;1.00;;
39044;SDS011;52192;52.002;5.956;2022-10-15T13:25:45;1.15;;;0.95;;
39044;SDS011;52192;52.002;5.956;2022-10-15T13:28:28;1.40;;;0.88;;
39044;SDS011;52192;52.002;5.956;2022-10-15T13:30:56;1.75;;;1.60;;
39044;SDS011;52192;52.002;5.956;2022-10-15T13:33:23;2.50;;;1.42;;
39044;SDS011;52192;52.002;5.956;2022-10-15T13:35:49;1.13;;;1.00;;
39044;SDS011;52192;52.002;5.956;2022-10-15T13:38:21;0.88;;;0.88;;
39044;SDS011;52192;52.002;5.956;2022-10-15T13:40:48;1.38;;;1.13;;
39044;SDS011;52192;52.002;5.956;2022-10-15T13:43:20;2.33;;;1.35;;
39044;SDS011;52192;52.002;5.956;2022-10-15T13:45:54;1.45;;;1.30;;
39044;SDS011;52192;52.002;5.956;2022-10-15T13:48:22;2.42;;;1.48;;
39044;SDS011;52192;52.002;5.956;2022-10-15T13:50:59;2.95;;;1.73;;
39044;SDS011;52192;52.002;5.956;2022-10-15T13:53:30;2.50;;;1.55;;
39044;SDS011;52192;52.002;5.956;2022-10-15T13:56:13;2.15;;;1.70;;
39044;SDS011;52192;52.002;5.956;2022-10-15T13:58:48;2.10;;;1.70;;
39044;SDS011;52192;52.002;5.956;2022-10-15T14:03:45;2.58;;;1.80;;
39044;SDS011;52192;52.002;5.956;2022-10-15T14:08:59;1.70;;;1.40;;
39044;SDS011;52192;52.002;5.956;2022-10-15T14:11:35;1.63;;;1.35;;
39044;SDS011;52192;52.002;5.956;2022-10-15T14:14:03;1.80;;;1.40;;
39044;SDS011;52192;52.002;5.956;2022-10-15T14:16:48;2.00;;;1.63;;
39044;SDS011;52192;52.002;5.956;2022-10-15T14:19:18;1.98;;;1.35;;
39044;SDS011;52192;52.002;5.956;2022-10-15T14:21:51;2.53;;;1.70;;
39044;SDS011;52192;52.002;5.956;2022-10-15T14:24:20;1.35;;;1.15;;
39044;SDS011;52192;52.002;5.956;2022-10-15T14:26:48;1.60;;;1.20;;
39044;SDS011;52192;52.002;5.956;2022-10-15T14:31:53;2.58;;;2.08;;
39044;SDS011;52192;52.002;5.956;2022-10-15T14:34:24;2.30;;;1.60;;
39044;SDS011;52192;52.002;5.956;2022-10-15T14:36:54;1.25;;;1.08;;
39044;SDS011;52192;52.002;5.956;2022-10-15T14:39:27;1.98;;;1.10;;
39044;SDS011;52192;52.002;5.956;2022-10-15T14:41:53;1.23;;;1.05;;
39044;SDS011;52192;52.002;5.956;2022-10-15T14:44:23;1.48;;;1.13;;
39044;SDS011;52192;52.002;5.956;2022-10-15T14:46:49;1.38;;;1.27;;
39044;SDS011;52192;52.002;5.956;2022-10-15T14:49:29;1.48;;;1.38;;
39044;SDS011;52192;52.002;5.956;2022-10-15T14:51:59;2.30;;;1.77;;
39044;SDS011;52192;52.002;5.956;2022-10-15T14:54:43;3.35;;;1.48;;
39044;SDS011;52192;52.002;5.956;2022-10-15T14:57:16;0.95;;;0.90;;
39044;SDS011;52192;52.002;5.956;2022-10-15T14:59:50;1.70;;;1.33;;
39044;SDS011;52192;52.002;5.956;2022-10-15T15:02:18;1.85;;;1.70;;
39044;SDS011;52192;52.002;5.956;2022-10-15T15:04:51;1.90;;;1.73;;
39044;SDS011;52192;52.002;5.956;2022-10-15T15:07:30;1.98;;;1.77;;
39044;SDS011;52192;52.002;5.956;2022-10-15T15:09:55;1.95;;;1.05;;
39044;SDS011;52192;52.002;5.956;2022-10-15T15:12:22;1.60;;;1.10;;
39044;SDS011;52192;52.002;5.956;2022-10-15T15:14:50;4.28;;;1.73;;
39044;SDS011;52192;52.002;5.956;2022-10-15T15:17:16;1.63;;;1.08;;
39044;SDS011;52192;52.002;5.956;2022-10-15T15:19:44;2.47;;;1.10;;
39044;SDS011;52192;52.002;5.956;2022-10-15T15:22:10;2.75;;;1.60;;
39044;SDS011;52192;52.002;5.956;2022-10-15T15:24:39;1.45;;;0.90;;
39044;SDS011;52192;52.002;5.956;2022-10-15T15:27:05;1.08;;;0.95;;
39044;SDS011;52192;52.002;5.956;2022-10-15T15:29:31;2.42;;;1.90;;
39044;SDS011;52192;52.002;5.956;2022-10-15T15:31:57;5.07;;;1.73;;
39044;SDS011;52192;52.002;5.956;2022-10-15T15:34:22;1.70;;;1.25;;
39044;SDS011;52192;52.002;5.956;2022-10-15T15:36:48;3.13;;;1.23;;
39044;SDS011;52192;52.002;5.956;2022-10-15T15:39:14;2.15;;;1.30;;
39044;SDS011;52192;52.002;5.956;2022-10-15T15:41:39;1.30;;;1.20;;
39044;SDS011;52192;52.002;5.956;2022-10-15T15:44:05;1.92;;;1.02;;
39044;SDS011;52192;52.002;5.956;2022-10-15T15:46:31;1.25;;;0.85;;
39044;SDS011;52192;52.002;5.956;2022-10-15T15:48:57;1.35;;;1.13;;
39044;SDS011;52192;52.002;5.956;2022-10-15T15:51:24;1.45;;;1.00;;
39044;SDS011;52192;52.002;5.956;2022-10-15T15:53:52;0.88;;;0.75;;
39044;SDS011;52192;52.002;5.956;2022-10-15T15:56:19;1.33;;;0.80;;
39044;SDS011;52192;52.002;5.956;2022-10-15T15:58:45;1.05;;;0.95;;
39044;SDS011;52192;52.002;5.956;2022-10-15T16:01:14;1.35;;;0.95;;
39044;SDS011;52192;52.002;5.956;2022-10-15T16:03:40;1.15;;;1.05;;
39044;SDS011;52192;52.002;5.956;2022-10-15T16:06:06;1.00;;;0.88;;
39044;SDS011;52192;52.002;5.956;2022-10-15T16:08:32;0.63;;;0.63;;
39044;SDS011;52192;52.002;5.956;2022-10-15T16:11:02;1.05;;;0.75;;
39044;SDS011;52192;52.002;5.956;2022-10-15T16:13:30;0.77;;;0.73;;
39044;SDS011;52192;52.002;5.956;2022-10-15T16:15:56;0.75;;;0.63;;
39044;SDS011;52192;52.002;5.956;2022-10-15T16:18:21;1.75;;;0.90;;
39044;SDS011;52192;52.002;5.956;2022-10-15T16:20:47;2.75;;;1.45;;
39044;SDS011;52192;52.002;5.956;2022-10-15T16:23:14;0.93;;;0.77;;
39044;SDS011;52192;52.002;5.956;2022-10-15T16:25:39;0.73;;;0.73;;
39044;SDS011;52192;52.002;5.956;2022-10-15T16:28:05;1.35;;;0.90;;
39044;SDS011;52192;52.002;5.956;2022-10-15T16:30:31;1.05;;;0.95;;
39044;SDS011;52192;52.002;5.956;2022-10-15T16:32:56;1.70;;;0.80;;
39044;SDS011;52192;52.002;5.956;2022-10-15T16:35:22;1.02;;;0.93;;
39044;SDS011;52192;52.002;5.956;2022-10-15T16:37:48;1.45;;;1.02;;
39044;SDS011;52192;52.002;5.956;2022-10-15T16:40:16;1.30;;;1.08;;
39044;SDS011;52192;52.002;5.956;2022-10-15T16:42:43;2.50;;;1.25;;
39044;SDS011;52192;52.002;5.956;2022-10-15T16:45:08;1.52;;;1.08;;
39044;SDS011;52192;52.002;5.956;2022-10-15T16:47:34;2.42;;;0.82;;
39044;SDS011;52192;52.002;5.956;2022-10-15T16:50:00;2.05;;;0.98;;
39044;SDS011;52192;52.002;5.956;2022-10-15T16:52:26;1.00;;;0.90;;
39044;SDS011;52192;52.002;5.956;2022-10-15T16:54:52;1.23;;;1.00;;
39044;SDS011;52192;52.002;5.956;2022-10-15T16:57:17;2.80;;;1.13;;
39044;SDS011;52192;52.002;5.956;2022-10-15T16:59:43;3.05;;;1.30;;
39044;SDS011;52192;52.002;5.956;2022-10-15T17:02:08;1.55;;;1.15;;
39044;SDS011;52192;52.002;5.956;2022-10-15T17:04:34;1.50;;;0.90;;